sensor_id;sensor_type;location;lat;lon;timestamp;temperature;humidity
33841;DHT22;20142;28.494;-16.312;2023-01-13T00:04:26;16.50;77.30
33841;DHT22;20142;28.494;-16.312;2023-01-13T00:09:28;16.50;77.00
33841;DHT22;20142;28.494;-16.312;2023-01-13T00:14:33;16.50;76.90
33841;DHT22;20142;28.494;-16.312;2023-01-13T00:19:35;16.50;76.60
33841;DHT22;20142;28.494;-16.312;2023-01-13T00:24:37;16.30;76.60
33841;DHT22;20142;28.494;-16.312;2023-01-13T00:29:39;16.30;76.10
33841;DHT22;20142;28.494;-16.312;2023-01-13T00:34:40;16.20;76.60
33841;DHT22;20142;28.494;-16.312;2023-01-13T00:39:42;16.30;76.60
33841;DHT22;20142;28.494;-16.312;2023-01-13T00:44:44;16.20;76.10
33841;DHT22;20142;28.494;-16.312;2023-01-13T00:49:45;16.10;76.20
33841;DHT22;20142;28.494;-16.312;2023-01-13T00:54:47;16.00;75.80
33841;DHT22;20142;28.494;-16.312;2023-01-13T00:59:49;15.90;76.10
33841;DHT22;20142;28.494;-16.312;2023-01-13T01:04:50;15.90;76.30
33841;DHT22;20142;28.494;-16.312;2023-01-13T01:09:52;16.00;76.70
33841;DHT22;20142;28.494;-16.312;2023-01-13T01:14:54;16.20;76.40
33841;DHT22;20142;28.494;-16.312;2023-01-13T01:19:55;16.30;76.00
33841;DHT22;20142;28.494;-16.312;2023-01-13T01:24:57;16.40;75.70
33841;DHT22;20142;28.494;-16.312;2023-01-13T01:29:59;16.20;75.70
33841;DHT22;20142;28.494;-16.312;2023-01-13T01:35:00;16.20;76.40
33841;DHT22;20142;28.494;-16.312;2023-01-13T01:40:02;16.40;76.30
33841;DHT22;20142;28.494;-16.312;2023-01-13T01:45:17;16.50;76.10
33841;DHT22;20142;28.494;-16.312;2023-01-13T01:50:21;16.60;76.10
33841;DHT22;20142;28.494;-16.312;2023-01-13T01:55:28;16.60;76.00
33841;DHT22;20142;28.494;-16.312;2023-01-13T02:00:31;16.60;76.00
33841;DHT22;20142;28.494;-16.312;2023-01-13T02:05:33;16.50;76.00
33841;DHT22;20142;28.494;-16.312;2023-01-13T02:10:35;16.40;76.30
33841;DHT22;20142;28.494;-16.312;2023-01-13T02:21:39;16.70;76.60
33841;DHT22;20142;28.494;-16.312;2023-01-13T02:27:39;16.80;76.30
33841;DHT22;20142;28.494;-16.312;2023-01-13T02:38:38;16.70;76.20
33841;DHT22;20142;28.494;-16.312;2023-01-13T02:43:50;16.70;76.20
33841;DHT22;20142;28.494;-16.312;2023-01-13T02:49:10;16.60;76.90
33841;DHT22;20142;28.494;-16.312;2023-01-13T02:54:22;16.70;77.00
33841;DHT22;20142;28.494;-16.312;2023-01-13T02:59:28;16.80;77.20
33841;DHT22;20142;28.494;-16.312;2023-01-13T03:10:10;16.70;77.20
33841;DHT22;20142;28.494;-16.312;2023-01-13T03:15:47;16.60;77.20
33841;DHT22;20142;28.494;-16.312;2023-01-13T03:21:26;16.70;78.00
33841;DHT22;20142;28.494;-16.312;2023-01-13T03:26:46;16.90;77.60
33841;DHT22;20142;28.494;-16.312;2023-01-13T03:32:14;17.00;77.10
33841;DHT22;20142;28.494;-16.312;2023-01-13T03:37:26;17.00;77.30
33841;DHT22;20142;28.494;-16.312;2023-01-13T03:42:32;17.00;77.30
33841;DHT22;20142;28.494;-16.312;2023-01-13T03:47:53;16.90;77.10
33841;DHT22;20142;28.494;-16.312;2023-01-13T03:53:10;16.80;77.40
33841;DHT22;20142;28.494;-16.312;2023-01-13T03:58:20;16.70;77.30
33841;DHT22;20142;28.494;-16.312;2023-01-13T04:03:40;16.70;77.70
33841;DHT22;20142;28.494;-16.312;2023-01-13T04:09:02;16.80;78.00
33841;DHT22;20142;28.494;-16.312;2023-01-13T04:14:15;16.80;78.10
33841;DHT22;20142;28.494;-16.312;2023-01-13T04:19:20;16.90;78.20
33841;DHT22;20142;28.494;-16.312;2023-01-13T04:24:22;16.90;78.00
33841;DHT22;20142;28.494;-16.312;2023-01-13T04:29:23;17.00;78.10
33841;DHT22;20142;28.494;-16.312;2023-01-13T04:34:25;16.80;77.90
33841;DHT22;20142;28.494;-16.312;2023-01-13T04:39:27;16.60;77.90
33841;DHT22;20142;28.494;-16.312;2023-01-13T04:44:28;16.50;78.20
33841;DHT22;20142;28.494;-16.312;2023-01-13T04:49:35;16.50;78.00
33841;DHT22;20142;28.494;-16.312;2023-01-13T04:54:37;16.40;78.20
33841;DHT22;20142;28.494;-16.312;2023-01-13T04:59:38;16.40;78.10
33841;DHT22;20142;28.494;-16.312;2023-01-13T05:04:42;16.50;78.30
33841;DHT22;20142;28.494;-16.312;2023-01-13T05:09:43;16.50;78.20
33841;DHT22;20142;28.494;-16.312;2023-01-13T05:14:45;16.60;78.10
33841;DHT22;20142;28.494;-16.312;2023-01-13T05:20:05;16.70;78.00
33841;DHT22;20142;28.494;-16.312;2023-01-13T05:25:10;16.70;77.60
33841;DHT22;20142;28.494;-16.312;2023-01-13T05:30:30;16.60;77.70
33841;DHT22;20142;28.494;-16.312;2023-01-13T05:35:33;16.60;77.50
33841;DHT22;20142;28.494;-16.312;2023-01-13T05:40:37;16.50;77.60
33841;DHT22;20142;28.494;-16.312;2023-01-13T05:46:01;16.60;77.70
33841;DHT22;20142;28.494;-16.312;2023-01-13T05:51:06;16.50;77.40
33841;DHT22;20142;28.494;-16.312;2023-01-13T05:56:10;16.40;77.70
33841;DHT22;20142;28.494;-16.312;2023-01-13T06:01:12;16.50;77.50
33841;DHT22;20142;28.494;-16.312;2023-01-13T06:06:13;16.50;77.60
33841;DHT22;20142;28.494;-16.312;2023-01-13T06:11:15;16.40;77.50
33841;DHT22;20142;28.494;-16.312;2023-01-13T06:16:17;16.40;77.60
33841;DHT22;20142;28.494;-16.312;2023-01-13T06:21:18;16.60;77.40
33841;DHT22;20142;28.494;-16.312;2023-01-13T06:26:21;16.60;77.20
33841;DHT22;20142;28.494;-16.312;2023-01-13T06:31:25;16.60;77.20
33841;DHT22;20142;28.494;-16.312;2023-01-13T06:36:33;16.40;77.30
33841;DHT22;20142;28.494;-16.312;2023-01-13T06:41:36;16.40;77.20
33841;DHT22;20142;28.494;-16.312;2023-01-13T06:46:56;16.30;77.40
33841;DHT22;20142;28.494;-16.312;2023-01-13T06:51:58;16.30;77.20
33841;DHT22;20142;28.494;-16.312;2023-01-13T06:57:00;16.30;77.40
33841;DHT22;20142;28.494;-16.312;2023-01-13T07:02:02;16.30;77.40
33841;DHT22;20142;28.494;-16.312;2023-01-13T07:07:04;16.50;77.40
33841;DHT22;20142;28.494;-16.312;2023-01-13T07:12:06;16.50;77.10
33841;DHT22;20142;28.494;-16.312;2023-01-13T07:17:08;16.40;77.00
33841;DHT22;20142;28.494;-16.312;2023-01-13T07:22:12;16.40;77.00
33841;DHT22;20142;28.494;-16.312;2023-01-13T07:27:14;16.20;76.80
33841;DHT22;20142;28.494;-16.312;2023-01-13T07:32:15;16.20;77.10
33841;DHT22;20142;28.494;-16.312;2023-01-13T07:37:17;16.20;77.00
33841;DHT22;20142;28.494;-16.312;2023-01-13T07:42:19;16.20;76.90
33841;DHT22;20142;28.494;-16.312;2023-01-13T07:47:39;16.20;76.90
33841;DHT22;20142;28.494;-16.312;2023-01-13T07:52:41;16.20;76.80
33841;DHT22;20142;28.494;-16.312;2023-01-13T07:57:43;16.20;77.10
33841;DHT22;20142;28.494;-16.312;2023-01-13T08:02:44;16.20;76.90
33841;DHT22;20142;28.494;-16.312;2023-01-13T08:07:46;16.20;77.20
33841;DHT22;20142;28.494;-16.312;2023-01-13T08:12:48;16.10;76.90
33841;DHT22;20142;28.494;-16.312;2023-01-13T08:18:08;16.10;77.20
33841;DHT22;20142;28.494;-16.312;2023-01-13T08:23:10;16.20;77.40
33841;DHT22;20142;28.494;-16.312;2023-01-13T08:28:12;16.30;77.30
33841;DHT22;20142;28.494;-16.312;2023-01-13T08:33:16;16.20;77.30
33841;DHT22;20142;28.494;-16.312;2023-01-13T08:38:18;16.20;77.10
33841;DHT22;20142;28.494;-16.312;2023-01-13T08:43:20;16.00;77.00
33841;DHT22;20142;28.494;-16.312;2023-01-13T08:48:21;16.10;77.50
33841;DHT22;20142;28.494;-16.312;2023-01-13T08:53:23;16.20;77.80
33841;DHT22;20142;28.494;-16.312;2023-01-13T08:58:25;16.40;77.50
33841;DHT22;20142;28.494;-16.312;2023-01-13T09:03:27;16.60;77.70
33841;DHT22;20142;28.494;-16.312;2023-01-13T09:08:28;16.60;77.30
33841;DHT22;20142;28.494;-16.312;2023-01-13T09:13:30;16.90;77.30
33841;DHT22;20142;28.494;-16.312;2023-01-13T09:18:31;17.10;77.40
33841;DHT22;20142;28.494;-16.312;2023-01-13T09:23:33;17.30;77.00
33841;DHT22;20142;28.494;-16.312;2023-01-13T09:28:35;17.40;77.20
33841;DHT22;20142;28.494;-16.312;2023-01-13T09:33:36;17.50;76.50
33841;DHT22;20142;28.494;-16.312;2023-01-13T09:38:56;17.70;76.60
33841;DHT22;20142;28.494;-16.312;2023-01-13T09:44:00;17.80;76.70
33841;DHT22;20142;28.494;-16.312;2023-01-13T09:49:03;18.10;76.30
33841;DHT22;20142;28.494;-16.312;2023-01-13T09:54:24;18.30;75.80
33841;DHT22;20142;28.494;-16.312;2023-01-13T09:59:32;18.40;75.60
33841;DHT22;20142;28.494;-16.312;2023-01-13T10:04:36;18.20;75.90
33841;DHT22;20142;28.494;-16.312;2023-01-13T10:14:54;18.80;75.40
33841;DHT22;20142;28.494;-16.312;2023-01-13T10:20:11;19.10;74.40
33841;DHT22;20142;28.494;-16.312;2023-01-13T10:25:51;19.20;73.60
33841;DHT22;20142;28.494;-16.312;2023-01-13T10:30:58;19.20;73.70
33841;DHT22;20142;28.494;-16.312;2023-01-13T10:36:02;19.20;73.90
33841;DHT22;20142;28.494;-16.312;2023-01-13T10:46:20;19.00;73.80
33841;DHT22;20142;28.494;-16.312;2023-01-13T10:56:31;19.40;74.70
33841;DHT22;20142;28.494;-16.312;2023-01-13T11:01:33;19.20;74.00
33841;DHT22;20142;28.494;-16.312;2023-01-13T11:06:35;18.80;74.50
33841;DHT22;20142;28.494;-16.312;2023-01-13T11:11:42;19.20;74.10
33841;DHT22;20142;28.494;-16.312;2023-01-13T11:16:48;19.60;73.70
33841;DHT22;20142;28.494;-16.312;2023-01-13T11:38:03;20.50;72.60
33841;DHT22;20142;28.494;-16.312;2023-01-13T11:43:28;20.70;71.80
33841;DHT22;20142;28.494;-16.312;2023-01-13T11:48:40;20.40;71.10
33841;DHT22;20142;28.494;-16.312;2023-01-13T11:59:36;21.00;70.90
33841;DHT22;20142;28.494;-16.312;2023-01-13T12:26:25;20.50;69.80
33841;DHT22;20142;28.494;-16.312;2023-01-13T12:31:34;20.80;69.60
33841;DHT22;20142;28.494;-16.312;2023-01-13T12:37:06;21.10;68.90
33841;DHT22;20142;28.494;-16.312;2023-01-13T12:42:30;21.50;68.70
33841;DHT22;20142;28.494;-16.312;2023-01-13T12:48:43;21.40;68.30
33841;DHT22;20142;28.494;-16.312;2023-01-13T12:53:57;21.20;68.50
33841;DHT22;20142;28.494;-16.312;2023-01-13T12:59:34;20.70;69.30
33841;DHT22;20142;28.494;-16.312;2023-01-13T13:09:53;20.50;69.80
33841;DHT22;20142;28.494;-16.312;2023-01-13T13:19:59;20.70;69.30
33841;DHT22;20142;28.494;-16.312;2023-01-13T13:30:34;21.10;68.70
33841;DHT22;20142;28.494;-16.312;2023-01-13T13:35:54;21.20;68.00
33841;DHT22;20142;28.494;-16.312;2023-01-13T13:41:17;21.10;68.20
33841;DHT22;20142;28.494;-16.312;2023-01-13T13:46:45;21.20;68.50
33841;DHT22;20142;28.494;-16.312;2023-01-13T13:56:52;20.70;67.70
33841;DHT22;20142;28.494;-16.312;2023-01-13T14:01:56;20.50;69.00
33841;DHT22;20142;28.494;-16.312;2023-01-13T14:12:21;20.50;69.30
33841;DHT22;20142;28.494;-16.312;2023-01-13T14:17:26;20.10;69.90
33841;DHT22;20142;28.494;-16.312;2023-01-13T14:22:30;20.00;70.50
33841;DHT22;20142;28.494;-16.312;2023-01-13T14:27:32;19.80;70.20
33841;DHT22;20142;28.494;-16.312;2023-01-13T14:32:35;19.80;71.70
33841;DHT22;20142;28.494;-16.312;2023-01-13T14:37:39;19.80;71.90
33841;DHT22;20142;28.494;-16.312;2023-01-13T14:42:42;19.80;71.90
33841;DHT22;20142;28.494;-16.312;2023-01-13T14:47:51;19.60;72.30
33841;DHT22;20142;28.494;-16.312;2023-01-13T14:52:54;19.70;72.30
33841;DHT22;20142;28.494;-16.312;2023-01-13T14:58:21;19.80;72.60
33841;DHT22;20142;28.494;-16.312;2023-01-13T15:03:23;19.80;72.10
33841;DHT22;20142;28.494;-16.312;2023-01-13T15:08:27;19.60;72.10
33841;DHT22;20142;28.494;-16.312;2023-01-13T15:13:41;19.50;72.90
33841;DHT22;20142;28.494;-16.312;2023-01-13T15:18:45;20.00;72.90
33841;DHT22;20142;28.494;-16.312;2023-01-13T15:23:46;19.90;72.00
33841;DHT22;20142;28.494;-16.312;2023-01-13T15:28:49;19.70;73.20
33841;DHT22;20142;28.494;-16.312;2023-01-13T15:33:52;19.70;72.40
33841;DHT22;20142;28.494;-16.312;2023-01-13T15:38:54;19.40;72.20
33841;DHT22;20142;28.494;-16.312;2023-01-13T15:43:56;19.50;73.00
33841;DHT22;20142;28.494;-16.312;2023-01-13T15:49:35;19.70;72.70
33841;DHT22;20142;28.494;-16.312;2023-01-13T15:54:39;19.60;72.50
33841;DHT22;20142;28.494;-16.312;2023-01-13T15:59:41;19.40;72.70
33841;DHT22;20142;28.494;-16.312;2023-01-13T16:04:43;19.30;72.40
33841;DHT22;20142;28.494;-16.312;2023-01-13T16:09:46;19.60;73.10
33841;DHT22;20142;28.494;-16.312;2023-01-13T16:14:47;20.00;72.80
33841;DHT22;20142;28.494;-16.312;2023-01-13T16:19:49;22.00;67.90
33841;DHT22;20142;28.494;-16.312;2023-01-13T16:24:51;20.70;69.70
33841;DHT22;20142;28.494;-16.312;2023-01-13T16:29:53;20.30;70.60
33841;DHT22;20142;28.494;-16.312;2023-01-13T16:34:55;20.00;71.80
33841;DHT22;20142;28.494;-16.312;2023-01-13T16:39:56;19.80;71.00
33841;DHT22;20142;28.494;-16.312;2023-01-13T16:44:58;19.70;71.20
33841;DHT22;20142;28.494;-16.312;2023-01-13T16:50:06;19.60;70.80
33841;DHT22;20142;28.494;-16.312;2023-01-13T16:55:11;19.60;70.90
33841;DHT22;20142;28.494;-16.312;2023-01-13T17:00:13;19.50;71.00
33841;DHT22;20142;28.494;-16.312;2023-01-13T17:05:16;19.20;70.90
33841;DHT22;20142;28.494;-16.312;2023-01-13T17:10:21;18.70;71.50
33841;DHT22;20142;28.494;-16.312;2023-01-13T17:15:24;18.70;72.50
33841;DHT22;20142;28.494;-16.312;2023-01-13T17:20:26;18.70;72.30
33841;DHT22;20142;28.494;-16.312;2023-01-13T17:25:28;18.70;72.50
33841;DHT22;20142;28.494;-16.312;2023-01-13T17:30:29;18.60;72.80
33841;DHT22;20142;28.494;-16.312;2023-01-13T17:35:31;18.60;73.00
33841;DHT22;20142;28.494;-16.312;2023-01-13T17:40:33;18.60;72.60
33841;DHT22;20142;28.494;-16.312;2023-01-13T17:45:39;18.30;72.80
33841;DHT22;20142;28.494;-16.312;2023-01-13T17:50:46;18.40;73.30
33841;DHT22;20142;28.494;-16.312;2023-01-13T17:55:50;18.30;73.90
33841;DHT22;20142;28.494;-16.312;2023-01-13T18:00:52;18.40;73.50
33841;DHT22;20142;28.494;-16.312;2023-01-13T18:05:54;18.40;73.60
33841;DHT22;20142;28.494;-16.312;2023-01-13T18:10:55;18.30;73.90
33841;DHT22;20142;28.494;-16.312;2023-01-13T18:16:04;18.20;74.30
33841;DHT22;20142;28.494;-16.312;2023-01-13T18:21:24;18.00;74.20
33841;DHT22;20142;28.494;-16.312;2023-01-13T18:26:44;17.60;74.80
33841;DHT22;20142;28.494;-16.312;2023-01-13T18:32:04;17.80;75.00
33841;DHT22;20142;28.494;-16.312;2023-01-13T18:37:09;17.90;75.40
33841;DHT22;20142;28.494;-16.312;2023-01-13T18:42:11;18.00;75.30
33841;DHT22;20142;28.494;-16.312;2023-01-13T18:47:31;17.90;75.30
33841;DHT22;20142;28.494;-16.312;2023-01-13T18:52:34;18.00;75.10
33841;DHT22;20142;28.494;-16.312;2023-01-13T18:57:36;17.90;75.40
33841;DHT22;20142;28.494;-16.312;2023-01-13T19:02:41;17.70;75.50
33841;DHT22;20142;28.494;-16.312;2023-01-13T19:07:43;17.70;76.50
33841;DHT22;20142;28.494;-16.312;2023-01-13T19:12:50;17.80;75.80
33841;DHT22;20142;28.494;-16.312;2023-01-13T19:17:52;17.80;76.10
33841;DHT22;20142;28.494;-16.312;2023-01-13T19:22:53;17.70;76.50
33841;DHT22;20142;28.494;-16.312;2023-01-13T19:27:55;17.80;76.50
33841;DHT22;20142;28.494;-16.312;2023-01-13T19:32:57;17.80;76.10
33841;DHT22;20142;28.494;-16.312;2023-01-13T19:37:58;17.60;76.70
33841;DHT22;20142;28.494;-16.312;2023-01-13T19:43:00;17.70;76.60
33841;DHT22;20142;28.494;-16.312;2023-01-13T19:48:31;17.60;76.50
33841;DHT22;20142;28.494;-16.312;2023-01-13T19:53:33;17.50;76.60
33841;DHT22;20142;28.494;-16.312;2023-01-13T19:58:34;17.50;77.10
33841;DHT22;20142;28.494;-16.312;2023-01-13T20:03:36;17.60;77.20
33841;DHT22;20142;28.494;-16.312;2023-01-13T20:08:38;17.40;77.00
33841;DHT22;20142;28.494;-16.312;2023-01-13T20:13:40;17.40;77.10
33841;DHT22;20142;28.494;-16.312;2023-01-13T20:18:41;17.30;77.60
33841;DHT22;20142;28.494;-16.312;2023-01-13T20:23:43;17.40;77.60
33841;DHT22;20142;28.494;-16.312;2023-01-13T20:28:46;17.40;77.60
33841;DHT22;20142;28.494;-16.312;2023-01-13T20:33:48;17.40;77.60
33841;DHT22;20142;28.494;-16.312;2023-01-13T20:38:50;17.30;77.70
33841;DHT22;20142;28.494;-16.312;2023-01-13T20:43:56;17.30;78.00
33841;DHT22;20142;28.494;-16.312;2023-01-13T20:48:58;17.50;78.00
33841;DHT22;20142;28.494;-16.312;2023-01-13T20:54:00;17.50;77.80
33841;DHT22;20142;28.494;-16.312;2023-01-13T20:59:02;17.50;77.60
33841;DHT22;20142;28.494;-16.312;2023-01-13T21:04:05;17.30;77.70
33841;DHT22;20142;28.494;-16.312;2023-01-13T21:09:07;17.30;77.80
33841;DHT22;20142;28.494;-16.312;2023-01-13T21:19:37;17.40;77.60
33841;DHT22;20142;28.494;-16.312;2023-01-13T21:24:39;17.40;77.90
33841;DHT22;20142;28.494;-16.312;2023-01-13T21:29:41;17.30;77.60
33841;DHT22;20142;28.494;-16.312;2023-01-13T21:34:44;17.30;77.90
33841;DHT22;20142;28.494;-16.312;2023-01-13T21:39:46;17.30;78.20
33841;DHT22;20142;28.494;-16.312;2023-01-13T21:44:48;17.30;78.20
33841;DHT22;20142;28.494;-16.312;2023-01-13T21:50:11;17.40;78.70
33841;DHT22;20142;28.494;-16.312;2023-01-13T21:55:15;17.50;78.70
33841;DHT22;20142;28.494;-16.312;2023-01-13T22:00:18;17.60;78.70
33841;DHT22;20142;28.494;-16.312;2023-01-13T22:05:22;17.50;78.50
33841;DHT22;20142;28.494;-16.312;2023-01-13T22:10:27;17.60;78.90
33841;DHT22;20142;28.494;-16.312;2023-01-13T22:15:34;17.50;78.80
33841;DHT22;20142;28.494;-16.312;2023-01-13T22:20:36;17.40;79.10
33841;DHT22;20142;28.494;-16.312;2023-01-13T22:25:37;17.60;79.40
33841;DHT22;20142;28.494;-16.312;2023-01-13T22:30:39;17.60;79.10
33841;DHT22;20142;28.494;-16.312;2023-01-13T22:35:41;17.40;79.30
33841;DHT22;20142;28.494;-16.312;2023-01-13T22:40:42;17.40;79.40
33841;DHT22;20142;28.494;-16.312;2023-01-13T22:45:44;17.50;79.60
33841;DHT22;20142;28.494;-16.312;2023-01-13T22:50:46;17.40;79.40
33841;DHT22;20142;28.494;-16.312;2023-01-13T22:55:55;17.50;79.80
33841;DHT22;20142;28.494;-16.312;2023-01-13T23:01:12;17.60;80.20
33841;DHT22;20142;28.494;-16.312;2023-01-13T23:06:16;17.60;80.10
33841;DHT22;20142;28.494;-16.312;2023-01-13T23:11:20;17.80;80.10
33841;DHT22;20142;28.494;-16.312;2023-01-13T23:16:28;17.70;80.20
33841;DHT22;20142;28.494;-16.312;2023-01-13T23:21:32;17.70;80.30
33841;DHT22;20142;28.494;-16.312;2023-01-13T23:26:36;17.80;80.40
33841;DHT22;20142;28.494;-16.312;2023-01-13T23:31:38;17.60;80.40
33841;DHT22;20142;28.494;-16.312;2023-01-13T23:36:40;17.50;80.50
33841;DHT22;20142;28.494;-16.312;2023-01-13T23:41:43;17.60;80.80
33841;DHT22;20142;28.494;-16.312;2023-01-13T23:46:45;17.60;80.80
33841;DHT22;20142;28.494;-16.312;2023-01-13T23:51:51;17.50;80.50
33841;DHT22;20142;28.494;-16.312;2023-01-13T23:56:53;17.50;80.40
